CST,Max TemperatureF,Mean TemperatureF,Min TemperatureF,Max Dew PointF,MeanDew PointF,Min DewpointF,Max Humidity, Mean Humidity, Min Humidity, Max Sea Level PressureIn, Mean Sea Level PressureIn, Min Sea Level PressureIn, Max VisibilityMiles, Mean VisibilityMiles, Min VisibilityMiles, Max Wind SpeedMPH, Mean Wind SpeedMPH, Max Gust SpeedMPH,PrecipitationIn, CloudCover, Events, WindDirDegrees
2013-11-1,51,45,39,42,39,35,89,78,66,29.81,29.65,29.48,10,9,7,17,10,22,0.01,6,Rain,277
2013-11-2,51,41,30,38,32,27,92,66,39,30.17,30.03,29.83,10,10,8,24,10,31,0.00,3,,317
2013-11-3,55,43,31,34,31,26,85,63,41,30.23,30.15,30.06,10,10,10,22,11,29,0.00,1,,143
2013-11-4,52,49,45,45,40,32,86,72,58,30.15,30.05,30.00,10,10,8,21,10,30,T,6,,168
2013-11-5,56,52,47,54,48,43,96,88,80,30.19,30.03,29.81,10,5,2,20,10,29,0.56,8,Rain,129
2013-11-6,57,42,26,39,30,23,100,73,45,30.27,30.00,29.76,10,9,2,25,15,32,0.16,5,Rain,301
2013-11-7,47,36,24,32,26,21,92,73,53,30.30,30.27,30.21,10,10,7,20,9,24,0.00,3,,269
2013-11-8,49,36,22,35,26,20,92,67,42,30.30,30.09,29.81,10,10,9,26,12,35,0.00,0,,155
2013-11-9,54,45,35,38,35,29,82,66,50,30.25,30.02,29.81,10,10,10,28,15,35,0.00,0,,275
2013-11-10,46,36,26,31,28,23,92,73,53,30.42,30.31,30.18,10,10,8,20,7,24,0.00,3,,250
2013-11-11,45,32,18,34,24,10,92,75,58,30.67,30.32,30.09,10,7,0,26,13,32,0.01,6,Fog-Snow,336
2013-11-12,28,20,11,15,11,7,84,69,53,30.84,30.75,30.65,10,10,10,13,8,17,0.00,0,,299
2013-11-13,46,30,13,18,13,9,80,53,25,30.62,30.36,30.09,10,10,10,24,13,31,0.00,0,,191
2013-11-14,51,41,30,27,24,18,69,54,39,30.07,29.97,29.91,10,10,10,21,10,25,0.00,0,,200
2013-11-15,56,43,29,33,30,25,78,58,38,29.94,29.88,29.80,10,10,10,16,9,18,T,1,,183
2013-11-16,62,52,41,55,49,34,93,82,70,29.79,29.54,29.39,10,7,1,29,16,37,0.87,6,Rain-Thunderstorm,175
2013-11-17,59,49,38,54,46,33,93,85,76,29.90,29.45,29.26,10,8,2,31,14,38,0.59,6,Rain-Thunderstorm,290
2013-11-18,42,34,26,34,29,25,89,73,57,30.31,30.12,29.91,10,10,9,26,13,31,0.00,3,,297
2013-11-19,46,34,22,29,25,20,88,69,49,30.33,30.24,30.14,10,9,7,20,9,28,0.00,1,,139
2013-11-20,38,37,36,36,32,26,92,78,64,30.13,30.05,29.98,10,5,2,23,12,30,0.23,8,Rain,141
2013-11-21,43,37,31,37,34,30,100,88,76,30.34,30.16,30.04,8,3,0,17,9,23,0.06,6,Fog-Rain-Snow,9
2013-11-22,32,24,15,28,22,10,92,82,72,30.58,30.47,30.32,10,7,2,22,12,28,0.01,5,Snow,328
2013-11-23,20,13,5,13,6,1,87,69,51,30.82,30.73,30.55,10,10,10,25,13,31,0.00,0,,327
2013-11-24,27,16,4,11,5,-1,88,65,42,30.77,30.59,30.33,10,10,10,20,9,23,0.00,0,,198
2013-11-25,34,28,21,27,20,12,85,73,60,30.29,30.16,30.09,10,6,0,22,11,28,0.08,7,Fog-Snow,222
2013-11-26,30,21,12,25,14,4,91,67,42,30.33,30.20,30.09,10,10,7,28,14,38,0.00,4,,318
2013-11-27,23,15,6,10,6,2,80,66,52,30.39,30.31,30.19,10,10,10,12,6,14,0.00,0,,277
2013-11-28,32,23,14,17,13,9,80,67,53,30.53,30.30,30.11,10,10,10,18,8,22,0.00,0,,295
2013-11-29,35,22,9,20,15,6,88,70,51,30.59,30.48,30.30,10,9,6,15,7,20,0.00,0,,144
2013-11-30,48,38,27,31,26,20,85,67,49,30.27,30.13,30.05,10,9,7,15,8,18,0.00,0,,223